Dover AFB, Delaware
Current Conditions -  °F | °C
As of 1:58 PM on Friday 31 Oct 2014 (Local Time) from KDOV Reporting Station
Overcast Overcast  
Wind Chill: 53°   Ceiling: 2800
Heat Index: 53°   Visibility: 10mi
Dew Point: 42°   Wind: 6mph
Humidity: 67%   Direction: 350°N
Pressure: 29.89"   Gusts: NA
Location:  39.16°N, 75.52°W
Report Text: KDOV 311758Z AUTO 35005KT 10SM OVC028 12/06 A2989 RMK AO2 SLP125 T01160057 10122 20049 57022
Loading
Personal Weather Stations






























Interactive Weather Map
Tropical Storm Tracking
New forecast layout! Learn more

10-Day Weather Forecast

Advertisements
Track Severe Weather on mobile